Time;durP1;ratioP1;P1;durP2;ratioP2;P2;SDS_P1;SDS_P2;PMS_P1;PMS_P2;Temp;Humidity;BMP_temperature;BMP_pressure;BME280_temperature;BME280_humidity;BME280_pressure;Samples;Min_cycle;Max_cycle;Signal;HPM_P1;HPM_P2
2023/01/12 00:02:20;;;;;;;10.00;2.90;;;7.60;99.90;;;;;;4957543;28;20243;-58
2023/01/12 00:04:48;;;;;;;9.60;3.10;;;7.60;99.90;;;;;;4958094;28;20479;-59
2023/01/12 00:07:16;;;;;;;16.47;3.53;;;7.60;99.90;;;;;;4958361;28;20579;-57
2023/01/12 00:09:45;;;;;;;8.07;2.80;;;7.60;99.90;;;;;;4957650;28;20239;-58
2023/01/12 00:12:13;;;;;;;11.23;2.80;;;7.70;99.90;;;;;;4957914;28;20289;-58
2023/01/12 00:14:41;;;;;;;9.83;3.03;;;7.70;99.90;;;;;;4957883;29;20235;-58
2023/01/12 00:17:14;;;;;;;9.17;2.80;;;7.70;99.90;;;;;;4958170;29;20283;-59
2023/01/12 00:19:42;;;;;;;13.87;2.93;;;7.70;99.90;;;;;;4957609;29;20228;-59
2023/01/12 00:22:11;;;;;;;9.13;2.80;;;7.70;99.90;;;;;;4957656;29;20223;-57
2023/01/12 00:24:42;;;;;;;9.07;2.90;;;7.70;99.90;;;;;;4957878;28;20229;-58
2023/01/12 00:27:13;;;;;;;9.20;2.83;;;7.70;99.90;;;;;;4957633;29;20330;-57
2023/01/12 00:29:41;;;;;;;9.77;3.17;;;7.70;99.90;;;;;;4956186;29;20318;-59
2023/01/12 00:32:13;;;;;;;7.77;2.50;;;7.70;99.90;;;;;;4942860;29;20231;-59
2023/01/12 00:34:41;;;;;;;10.80;3.20;;;7.70;99.90;;;;;;4957550;28;20242;-59
2023/01/12 00:37:09;;;;;;;7.37;2.97;;;7.80;99.90;;;;;;4938671;29;20236;-59
2023/01/12 00:39:38;;;;;;;10.83;2.40;;;7.80;99.90;;;;;;4954326;29;20235;-58
2023/01/12 00:47:45;;;;;;;6.23;2.63;;;7.90;99.90;;;;;;4957470;29;20231;-59
2023/01/12 00:50:14;;;;;;;8.23;2.93;;;8.00;99.90;;;;;;4956243;28;20223;-59
2023/01/12 00:52:46;;;;;;;9.83;2.70;;;7.90;99.90;;;;;;4957397;28;20679;-57
2023/01/12 00:55:14;;;;;;;9.97;2.90;;;7.90;99.90;;;;;;4957444;29;20587;-58
2023/01/12 00:57:42;;;;;;;10.93;2.73;;;7.90;99.90;;;;;;4957052;29;20234;-59
2023/01/12 01:00:11;;;;;;;13.97;2.90;;;7.80;99.90;;;;;;4949483;29;20694;-57
2023/01/12 01:02:39;;;;;;;9.33;2.70;;;7.80;99.90;;;;;;4956207;28;20251;-59
2023/01/12 01:05:09;;;;;;;10.07;2.60;;;7.80;99.90;;;;;;4957117;29;20263;-58
2023/01/12 01:07:37;;;;;;;7.97;2.20;;;7.80;99.90;;;;;;4956959;28;20246;-58
2023/01/12 01:10:06;;;;;;;12.77;2.53;;;7.80;99.90;;;;;;4957039;29;20706;-59
2023/01/12 01:12:34;;;;;;;7.43;2.40;;;7.80;99.90;;;;;;4956459;28;20223;-59
2023/01/12 01:15:02;;;;;;;8.37;2.30;;;7.80;99.90;;;;;;4957020;28;20231;-58
2023/01/12 01:17:30;;;;;;;7.97;2.70;;;7.80;99.90;;;;;;4956923;29;20239;-58
2023/01/12 01:19:58;;;;;;;14.03;3.37;;;7.80;99.90;;;;;;4956789;28;20232;-59
2023/01/12 01:22:28;;;;;;;9.77;2.40;;;7.80;99.90;;;;;;4956584;29;20227;-59
2023/01/12 01:24:56;;;;;;;9.77;2.57;;;7.80;99.90;;;;;;4956920;28;20247;-57
2023/01/12 01:27:24;;;;;;;7.37;2.60;;;7.90;99.90;;;;;;4956845;28;20707;-58
2023/01/12 01:29:52;;;;;;;9.13;2.50;;;7.90;99.90;;;;;;4956669;28;20232;-59
2023/01/12 01:32:20;;;;;;;4.70;1.90;;;7.80;99.90;;;;;;4956094;28;20235;-58
2023/01/12 01:34:48;;;;;;;6.07;2.50;;;7.90;99.90;;;;;;4956437;28;20223;-58
2023/01/12 01:37:17;;;;;;;8.03;2.50;;;7.90;99.90;;;;;;4956700;28;20239;-58
2023/01/12 01:39:46;;;;;;;7.27;2.13;;;7.80;99.90;;;;;;4956316;28;20242;-58
2023/01/12 01:42:26;;;;;;;8.87;2.57;;;7.80;99.90;;;;;;4956041;28;20238;-58
2023/01/12 01:44:57;;;;;;;10.87;2.67;;;7.80;99.90;;;;;;4956506;29;20333;-58
2023/01/12 01:47:32;;;;;;;6.50;2.20;;;7.80;99.90;;;;;;4956369;28;20227;-58
2023/01/12 01:50:03;;;;;;;12.10;3.30;;;7.80;99.90;;;;;;4956515;29;20234;-58
2023/01/12 01:52:36;;;;;;;7.27;2.37;;;7.80;99.90;;;;;;4955879;28;20242;-58
2023/01/12 01:55:08;;;;;;;11.20;2.97;;;7.80;99.90;;;;;;4956089;29;20318;-58
2023/01/12 01:57:42;;;;;;;4.93;2.13;;;7.90;99.90;;;;;;4955865;29;20227;-58
2023/01/12 02:00:12;;;;;;;8.57;2.67;;;7.80;99.90;;;;;;4948011;28;20233;-58
2023/01/12 02:02:42;;;;;;;6.47;2.20;;;7.90;99.90;;;;;;4955241;28;20330;-58
2023/01/12 02:05:13;;;;;;;5.60;2.33;;;7.90;99.90;;;;;;4948092;29;20227;-57
2023/01/12 02:07:41;;;;;;;8.57;2.70;;;7.90;99.90;;;;;;4955999;28;20697;-58
2023/01/12 02:10:11;;;;;;;12.50;2.67;;;7.90;99.90;;;;;;4948179;29;20224;-58
2023/01/12 02:18:30;;;;;;;10.00;2.80;;;7.80;99.90;;;;;;4896389;29;20404;-58
2023/01/12 02:21:11;;;;;;;10.53;2.73;;;7.80;99.90;;;;;;4928828;29;20242;-58
2023/01/12 02:24:07;;;;;;;10.07;2.83;;;7.80;99.90;;;;;;4936552;29;20579;-58
2023/01/12 02:27:05;;;;;;;12.50;3.27;;;7.80;99.90;;;;;;4936190;29;20227;-58
2023/01/12 02:30:08;;;;;;;9.00;2.57;;;7.80;99.90;;;;;;4950792;29;20721;-58
2023/01/12 02:32:44;;;;;;;9.37;2.80;;;7.80;99.90;;;;;;4942064;29;20231;-58
2023/01/12 02:35:19;;;;;;;7.97;2.80;;;7.80;99.90;;;;;;4947764;29;20226;-58
2023/01/12 02:37:55;;;;;;;11.63;3.17;;;7.80;99.90;;;;;;4955448;29;20230;-58
2023/01/12 02:40:31;;;;;;;10.57;3.00;;;7.80;99.90;;;;;;4955209;28;20231;-58
2023/01/12 02:43:06;;;;;;;8.67;2.40;;;7.70;99.90;;;;;;4954955;28;20239;-58
2023/01/12 02:45:42;;;;;;;9.50;2.87;;;7.60;99.90;;;;;;4955251;28;20594;-58
2023/01/12 02:48:20;;;;;;;10.60;2.80;;;7.60;99.90;;;;;;4955552;28;20238;-58
2023/01/12 02:50:54;;;;;;;7.27;2.40;;;7.60;99.90;;;;;;4955032;29;20227;-58
2023/01/12 02:53:28;;;;;;;9.40;2.97;;;7.60;99.90;;;;;;4955404;29;20242;-58
2023/01/12 02:55:57;;;;;;;7.20;2.33;;;7.60;99.90;;;;;;4955305;28;20246;-58
2023/01/12 02:58:27;;;;;;;7.20;2.37;;;7.60;99.90;;;;;;4954782;29;20234;-57
2023/01/12 03:00:57;;;;;;;7.93;2.73;;;7.60;99.90;;;;;;4954425;28;20235;-58
2023/01/12 03:03:27;;;;;;;9.30;2.37;;;7.60;99.90;;;;;;4954487;28;20234;-57
2023/01/12 03:05:56;;;;;;;9.53;2.50;;;7.60;99.90;;;;;;4955033;28;20238;-58
2023/01/12 03:08:27;;;;;;;8.33;2.60;;;7.60;99.90;;;;;;4954689;28;20572;-58
2023/01/12 03:11:11;;;;;;;9.93;2.37;;;7.60;99.90;;;;;;4954757;28;20231;-58
2023/01/12 03:13:44;;;;;;;10.50;2.60;;;7.50;99.90;;;;;;4954209;28;20235;-58
2023/01/12 03:16:14;;;;;;;9.07;2.40;;;7.60;99.90;;;;;;4955058;28;20242;-58
2023/01/12 03:18:50;;;;;;;9.00;2.00;;;7.60;99.90;;;;;;4954636;28;20215;-58
2023/01/12 03:21:25;;;;;;;6.83;1.90;;;7.60;99.90;;;;;;4954691;28;20262;-58
2023/01/12 03:23:58;;;;;;;9.30;2.63;;;7.60;99.90;;;;;;4954893;28;20275;-58
2023/01/12 03:26:28;;;;;;;6.30;2.30;;;7.60;99.90;;;;;;4954508;28;20683;-57
2023/01/12 03:29:08;;;;;;;6.33;1.87;;;7.60;99.90;;;;;;4954496;28;20231;-58
2023/01/12 03:31:37;;;;;;;9.13;2.43;;;7.60;99.90;;;;;;4954024;28;20242;-58
2023/01/12 03:34:07;;;;;;;6.83;2.13;;;7.70;99.90;;;;;;4954721;28;20702;-58
2023/01/12 03:36:45;;;;;;;6.70;2.00;;;7.70;99.90;;;;;;4954245;29;20679;-56
2023/01/12 03:39:19;;;;;;;8.87;2.30;;;7.70;99.90;;;;;;4954166;28;20591;-58
2023/01/12 03:41:56;;;;;;;6.27;2.00;;;7.80;99.90;;;;;;4954597;28;20261;-59
2023/01/12 03:44:31;;;;;;;6.67;2.33;;;7.70;99.90;;;;;;4954343;28;20233;-58
2023/01/12 03:47:04;;;;;;;10.63;3.33;;;7.70;99.90;;;;;;4954510;28;20261;-58
2023/01/12 03:49:39;;;;;;;8.43;3.00;;;7.80;99.90;;;;;;4954355;28;20310;-58
2023/01/12 03:52:09;;;;;;;12.10;3.80;;;7.80;99.90;;;;;;4954443;28;20595;-59
2023/01/12 03:54:39;;;;;;;7.20;3.40;;;7.70;99.90;;;;;;4954498;28;20259;-58
2023/01/12 03:57:10;;;;;;;9.80;3.47;;;7.80;99.90;;;;;;4954318;29;20255;-58
2023/01/12 03:59:39;;;;;;;9.37;3.70;;;7.80;99.90;;;;;;4954273;28;20687;-59
2023/01/12 04:02:08;;;;;;;9.83;3.77;;;7.80;99.90;;;;;;4953573;28;20251;-58
2023/01/12 04:04:39;;;;;;;6.87;3.00;;;7.80;99.90;;;;;;4953961;28;20234;-59
2023/01/12 04:07:08;;;;;;;12.33;3.30;;;7.80;99.90;;;;;;4953889;29;20688;-59
2023/01/12 04:09:38;;;;;;;10.53;4.00;;;7.80;99.90;;;;;;4953877;28;20314;-58
2023/01/12 04:12:10;;;;;;;12.40;3.83;;;7.70;99.90;;;;;;4954178;28;20235;-58
2023/01/12 04:14:41;;;;;;;9.67;3.60;;;7.70;99.90;;;;;;4954276;29;20278;-58
2023/01/12 04:17:12;;;;;;;9.07;3.73;;;7.70;99.90;;;;;;4954485;29;20232;-59
2023/01/12 04:19:41;;;;;;;10.77;3.57;;;7.70;99.90;;;;;;4954287;29;20714;-58
2023/01/12 04:24:59;;;;;;;10.40;3.70;;;7.70;99.90;;;;;;4957257;28;20243;-59
2023/01/12 04:27:27;;;;;;;10.70;3.73;;;7.80;99.90;;;;;;4956892;28;20252;-59
2023/01/12 04:29:55;;;;;;;9.87;3.77;;;7.80;99.90;;;;;;4957782;29;20239;-58
2023/01/12 04:32:24;;;;;;;11.90;4.60;;;7.80;99.90;;;;;;4955151;28;20509;-58
2023/01/12 04:34:53;;;;;;;8.67;3.60;;;7.80;99.90;;;;;;4957645;29;20232;-58
2023/01/12 04:37:21;;;;;;;10.93;3.27;;;7.80;99.90;;;;;;4957600;29;20235;-58
2023/01/12 04:39:49;;;;;;;9.57;3.77;;;7.90;99.90;;;;;;4957495;29;20230;-58
2023/01/12 04:45:09;;;;;;;7.53;3.43;;;7.90;99.90;;;;;;4942683;29;20231;-59
2023/01/12 04:47:38;;;;;;;6.73;3.00;;;7.90;99.90;;;;;;4957520;29;20709;-59
2023/01/12 04:50:08;;;;;;;9.00;3.40;;;7.90;99.90;;;;;;4957593;29;20238;-59
2023/01/12 04:52:36;;;;;;;8.80;3.10;;;7.90;99.90;;;;;;4957179;29;20227;-58
2023/01/12 04:55:06;;;;;;;10.50;3.00;;;7.90;99.90;;;;;;4957242;29;20322;-58
2023/01/12 04:57:34;;;;;;;9.43;3.63;;;7.90;99.90;;;;;;4956755;29;20231;-58
2023/01/12 05:00:02;;;;;;;9.77;3.50;;;7.90;99.90;;;;;;4956919;28;20715;-59
2023/01/12 05:02:30;;;;;;;8.97;3.40;;;7.90;99.90;;;;;;4956358;28;20250;-58
2023/01/12 05:04:58;;;;;;;8.10;3.07;;;7.90;99.90;;;;;;4957053;29;20713;-58
2023/01/12 05:07:27;;;;;;;6.43;3.30;;;7.80;99.90;;;;;;4957181;28;20239;-56
2023/01/12 05:12:40;;;;;;;8.43;3.37;;;7.90;99.90;;;;;;4957040;29;20694;-58
2023/01/12 05:15:09;;;;;;;8.23;3.60;;;7.80;99.90;;;;;;4956960;28;20224;-59
2023/01/12 05:17:37;;;;;;;7.50;3.93;;;7.80;99.90;;;;;;4956822;28;20222;-58
2023/01/12 05:20:07;;;;;;;8.07;3.80;;;7.90;99.90;;;;;;4956878;28;20235;-59
2023/01/12 05:22:37;;;;;;;8.60;4.23;;;7.80;99.90;;;;;;4956895;28;20595;-58
2023/01/12 05:25:06;;;;;;;7.10;4.03;;;7.80;99.90;;;;;;4956910;28;20578;-58
2023/01/12 05:27:34;;;;;;;8.90;4.93;;;7.80;99.90;;;;;;4956105;28;20231;-58
2023/01/12 05:30:02;;;;;;;6.53;4.17;;;7.80;99.90;;;;;;4956728;29;20231;-58
2023/01/12 05:32:30;;;;;;;10.03;5.23;;;7.80;99.90;;;;;;4955941;28;20239;-58
2023/01/12 05:34:58;;;;;;;12.33;4.00;;;7.80;99.90;;;;;;4955817;28;20243;-59
2023/01/12 05:37:26;;;;;;;9.57;3.70;;;7.90;99.90;;;;;;4956327;28;20239;-57
2023/01/12 05:39:55;;;;;;;5.83;3.80;;;7.90;99.90;;;;;;4955832;28;20232;-58
2023/01/12 05:45:10;;;;;;;10.93;4.10;;;7.80;99.90;;;;;;4956146;28;20235;-57
2023/01/12 05:47:38;;;;;;;8.40;3.77;;;7.80;99.90;;;;;;4955603;29;20232;-59
2023/01/12 05:50:07;;;;;;;11.23;3.57;;;7.80;99.90;;;;;;4956255;29;20232;-59
2023/01/12 05:52:35;;;;;;;10.00;3.80;;;7.80;99.90;;;;;;4956098;29;20233;-58
2023/01/12 05:55:06;;;;;;;9.60;3.57;;;7.80;99.90;;;;;;4956171;29;20239;-59
2023/01/12 05:57:34;;;;;;;9.67;3.77;;;7.90;99.90;;;;;;4956219;28;20239;-59
2023/01/12 06:00:02;;;;;;;6.10;3.00;;;7.90;99.90;;;;;;4955864;28;20231;-58
2023/01/12 06:02:39;;;;;;;8.53;3.40;;;7.90;99.90;;;;;;4955312;28;20640;-59
2023/01/12 06:05:08;;;;;;;7.40;3.00;;;7.90;99.90;;;;;;4955503;29;20236;-59
2023/01/12 06:07:37;;;;;;;6.13;2.63;;;7.90;99.90;;;;;;4955965;28;20229;-58
2023/01/12 06:10:07;;;;;;;4.83;2.53;;;7.90;99.90;;;;;;4955970;29;20219;-59
2023/01/12 06:15:21;;;;;;;6.40;3.07;;;7.90;99.90;;;;;;4955381;29;20238;-58
2023/01/12 06:17:49;;;;;;;6.87;2.93;;;7.90;99.90;;;;;;4950636;29;20231;-59
2023/01/12 06:20:17;;;;;;;3.90;3.10;;;7.90;99.90;;;;;;4955637;29;20243;-58
2023/01/12 06:22:45;;;;;;;6.87;2.90;;;7.90;99.90;;;;;;4955895;28;20242;-58
2023/01/12 06:25:15;;;;;;;8.47;3.20;;;8.00;99.90;;;;;;4955861;28;20235;-58
2023/01/12 06:27:43;;;;;;;7.70;3.30;;;8.00;99.90;;;;;;4955461;28;20227;-58
2023/01/12 06:30:12;;;;;;;6.87;3.50;;;8.00;99.90;;;;;;4951525;28;20220;-56
2023/01/12 06:32:40;;;;;;;6.43;3.30;;;8.00;99.90;;;;;;4955596;28;20231;-58
2023/01/12 06:35:08;;;;;;;6.73;3.70;;;8.00;99.90;;;;;;4952263;29;20572;-59
2023/01/12 06:37:46;;;;;;;6.77;3.50;;;8.00;99.90;;;;;;4953289;29;20309;-58
2023/01/12 06:40:16;;;;;;;6.30;3.83;;;8.00;99.90;;;;;;4952740;28;20227;-58
2023/01/12 06:42:44;;;;;;;6.10;3.83;;;8.00;99.90;;;;;;4952322;28;20231;-58
2023/01/12 06:45:12;;;;;;;7.47;4.07;;;8.10;99.90;;;;;;4954167;29;20228;-58
2023/01/12 06:47:45;;;;;;;6.30;4.00;;;8.00;99.90;;;;;;4953360;28;20246;-58
2023/01/12 06:50:13;;;;;;;7.30;4.67;;;8.00;99.90;;;;;;4951616;29;20231;-58
2023/01/12 06:52:41;;;;;;;7.03;4.30;;;8.00;99.90;;;;;;4953666;28;20247;-58
2023/01/12 06:55:10;;;;;;;9.07;4.50;;;8.00;99.90;;;;;;4945682;29;20279;-58
2023/01/12 06:57:39;;;;;;;4.63;3.80;;;8.00;99.90;;;;;;4954339;28;20246;-58
2023/01/12 07:00:10;;;;;;;5.47;4.23;;;8.00;99.90;;;;;;4954376;28;20231;-58
2023/01/12 07:02:39;;;;;;;8.33;4.70;;;8.00;99.90;;;;;;4951258;29;20247;-58
2023/01/12 07:05:08;;;;;;;7.83;5.27;;;8.00;99.90;;;;;;4953984;28;20231;-59
2023/01/12 07:07:37;;;;;;;8.17;4.43;;;8.00;99.90;;;;;;4953869;28;20239;-59
2023/01/12 07:10:07;;;;;;;7.20;5.27;;;8.00;99.90;;;;;;4954226;28;20235;-56
2023/01/12 07:12:35;;;;;;;8.97;5.27;;;8.00;99.90;;;;;;4954085;28;20236;-58
2023/01/12 07:15:06;;;;;;;7.03;4.53;;;8.00;99.90;;;;;;4954004;28;20243;-58
2023/01/12 07:17:34;;;;;;;8.13;4.80;;;8.10;99.90;;;;;;4954070;28;20220;-58
2023/01/12 07:20:02;;;;;;;6.70;5.10;;;8.00;99.90;;;;;;4953832;28;20636;-59
2023/01/12 07:22:30;;;;;;;7.73;5.17;;;8.10;99.90;;;;;;4954299;28;20239;-58
2023/01/12 07:24:58;;;;;;;7.43;5.47;;;8.10;99.90;;;;;;4954019;28;20246;-59
2023/01/12 07:27:26;;;;;;;6.13;5.00;;;8.10;99.90;;;;;;4953570;28;20236;-57
2023/01/12 07:29:54;;;;;;;7.53;4.60;;;8.10;99.90;;;;;;4952104;28;20242;-58
2023/01/12 07:32:29;;;;;;;6.07;4.60;;;8.10;99.90;;;;;;4942417;28;20606;-54
2023/01/12 07:34:58;;;;;;;7.37;5.37;;;8.10;99.90;;;;;;4941448;29;20245;-53
2023/01/12 07:37:26;;;;;;;7.27;5.13;;;8.10;99.90;;;;;;4941897;29;20227;-57
2023/01/12 07:39:54;;;;;;;7.90;5.07;;;8.10;99.90;;;;;;4939281;29;20352;-53
2023/01/12 07:42:26;;;;;;;6.13;4.83;;;8.10;99.90;;;;;;4941377;29;20243;-54
2023/01/12 07:44:54;;;;;;;6.10;4.90;;;8.00;99.90;;;;;;4942331;28;20231;-56
2023/01/12 07:47:22;;;;;;;6.47;4.80;;;8.00;99.90;;;;;;4941935;28;20235;-58
2023/01/12 07:49:51;;;;;;;6.00;4.80;;;8.10;99.90;;;;;;4940351;29;20238;-53
2023/01/12 07:52:19;;;;;;;7.37;4.67;;;8.10;99.90;;;;;;4942838;29;20227;-58
2023/01/12 07:54:47;;;;;;;7.60;5.27;;;8.00;99.90;;;;;;4941450;28;20822;-57
2023/01/12 07:57:15;;;;;;;6.97;5.00;;;8.10;99.90;;;;;;4941065;28;20612;-57
2023/01/12 07:59:43;;;;;;;6.27;4.83;;;8.10;99.90;;;;;;4942539;28;20695;-58
2023/01/12 08:02:15;;;;;;;6.67;5.00;;;8.10;99.90;;;;;;4944774;28;20241;-58
2023/01/12 08:04:43;;;;;;;6.40;5.17;;;8.00;99.90;;;;;;4945874;28;20235;-58
2023/01/12 08:07:13;;;;;;;4.93;4.43;;;8.10;99.90;;;;;;4945219;28;20557;-58
2023/01/12 08:09:42;;;;;;;5.23;3.73;;;8.10;99.90;;;;;;4943026;29;20246;-57
2023/01/12 08:12:10;;;;;;;3.73;2.90;;;8.00;99.90;;;;;;4945685;28;20231;-58
2023/01/12 08:14:40;;;;;;;2.57;2.37;;;8.10;99.90;;;;;;4945096;28;20227;-57
2023/01/12 08:17:13;;;;;;;5.73;2.87;;;8.10;99.90;;;;;;4944623;29;20223;-54
2023/01/12 08:19:45;;;;;;;3.77;2.40;;;8.10;99.90;;;;;;4943066;29;20234;-58
2023/01/12 08:22:19;;;;;;;4.40;2.10;;;8.00;99.90;;;;;;4945627;28;20235;-57
2023/01/12 08:24:52;;;;;;;3.83;2.23;;;8.00;99.90;;;;;;4945363;29;20237;-58
2023/01/12 08:27:25;;;;;;;6.10;2.27;;;8.00;99.90;;;;;;4945073;29;20243;-56
2023/01/12 08:29:57;;;;;;;2.57;2.20;;;8.10;99.90;;;;;;4943621;29;20726;-57
2023/01/12 08:32:27;;;;;;;5.97;2.20;;;8.00;99.90;;;;;;4944878;28;20250;-57
2023/01/12 08:35:00;;;;;;;4.30;2.13;;;8.00;99.90;;;;;;4945418;29;21342;-53
2023/01/12 08:37:32;;;;;;;3.67;1.90;;;8.00;99.90;;;;;;4945413;28;20722;-57
2023/01/12 08:40:01;;;;;;;2.60;1.43;;;8.10;99.90;;;;;;4945023;29;20595;-57
2023/01/12 08:42:29;;;;;;;2.00;1.63;;;8.10;99.90;;;;;;4945636;28;20253;-57
2023/01/12 08:44:59;;;;;;;2.87;1.50;;;8.10;99.90;;;;;;4944867;29;20352;-55
2023/01/12 08:47:29;;;;;;;1.67;1.57;;;8.10;99.90;;;;;;4943977;29;20239;-57
2023/01/12 08:49:59;;;;;;;3.63;1.53;;;8.20;99.90;;;;;;4941965;29;20243;-53
2023/01/12 08:52:30;;;;;;;3.63;1.47;;;8.20;99.90;;;;;;4944295;29;20239;-57
2023/01/12 08:54:59;;;;;;;2.23;1.70;;;8.20;99.90;;;;;;4944798;29;20239;-57
2023/01/12 08:57:28;;;;;;;2.87;1.37;;;8.10;99.90;;;;;;4943852;29;20242;-57
2023/01/12 08:59:56;;;;;;;2.50;1.50;;;8.20;99.90;;;;;;4942114;29;20231;-57
2023/01/12 09:02:25;;;;;;;3.03;1.53;;;8.20;99.90;;;;;;4944132;28;20250;-56
2023/01/12 09:04:54;;;;;;;2.30;1.30;;;8.20;99.90;;;;;;4944706;29;20318;-54
2023/01/12 09:07:22;;;;;;;1.57;1.33;;;8.20;99.90;;;;;;4944364;29;20238;-57
2023/01/12 09:09:50;;;;;;;2.33;1.40;;;8.20;99.90;;;;;;4942013;28;20254;-54
2023/01/12 09:12:19;;;;;;;1.47;1.23;;;8.20;99.90;;;;;;4946925;29;20243;-57
2023/01/12 09:14:52;;;;;;;1.87;1.30;;;8.30;99.90;;;;;;4946959;29;20392;-57
2023/01/12 09:17:21;;;;;;;2.13;1.40;;;8.30;99.90;;;;;;4946542;29;20738;-56
2023/01/12 09:19:50;;;;;;;1.30;1.17;;;8.40;99.90;;;;;;4944707;28;20231;-58
2023/01/12 09:22:18;;;;;;;3.57;1.20;;;8.40;99.90;;;;;;4946636;28;20239;-56
2023/01/12 09:24:46;;;;;;;1.53;1.20;;;8.40;99.90;;;;;;4944637;28;20235;-57
2023/01/12 09:27:14;;;;;;;1.67;1.20;;;8.40;99.90;;;;;;4944072;29;20235;-59
2023/01/12 09:29:43;;;;;;;1.50;1.23;;;8.50;99.90;;;;;;4942123;29;20238;-58
2023/01/12 09:32:11;;;;;;;1.93;1.37;;;8.50;99.90;;;;;;4943287;28;20599;-58
2023/01/12 09:34:39;;;;;;;1.97;1.40;;;8.50;99.90;;;;;;4944772;29;20239;-57
2023/01/12 09:37:07;;;;;;;2.57;1.60;;;8.60;99.90;;;;;;4945850;28;20237;-54
2023/01/12 09:39:35;;;;;;;1.40;1.30;;;8.70;99.90;;;;;;4944232;29;20287;-57
2023/01/12 09:47:43;;;;;;;1.60;1.50;;;8.70;99.90;;;;;;4945483;28;20237;-55
2023/01/12 09:50:14;;;;;;;2.20;1.53;;;8.70;99.90;;;;;;4944200;29;20785;-57
2023/01/12 09:52:48;;;;;;;1.27;1.17;;;8.70;99.90;;;;;;4946331;28;20239;-58
2023/01/12 09:55:19;;;;;;;1.60;1.40;;;8.80;99.90;;;;;;4946149;28;20923;-53
2023/01/12 09:58:10;;;;;;;2.13;1.40;;;8.80;99.90;;;;;;4945391;29;20718;-58
2023/01/12 10:00:39;;;;;;;2.13;1.60;;;8.80;99.90;;;;;;4942289;28;21136;-55
2023/01/12 10:03:15;;;;;;;1.63;1.50;;;8.90;99.90;;;;;;4942968;29;20247;-57
2023/01/12 10:05:47;;;;;;;2.63;1.60;;;8.90;99.90;;;;;;4942569;29;20695;-58
2023/01/12 10:08:21;;;;;;;2.43;2.23;;;8.90;99.90;;;;;;4942452;28;20742;-57
2023/01/12 10:11:07;;;;;;;2.90;2.60;;;8.90;99.90;;;;;;4939955;28;20722;-58
2023/01/12 10:14:01;;;;;;;2.63;2.43;;;9.00;99.90;;;;;;4942407;28;20243;-54
2023/01/12 10:16:40;;;;;;;2.77;2.57;;;9.00;99.90;;;;;;4942658;29;20231;-57
2023/01/12 10:19:22;;;;;;;3.20;2.47;;;9.00;99.90;;;;;;4942614;28;20231;-57
2023/01/12 10:21:52;;;;;;;3.57;3.03;;;9.00;99.90;;;;;;4945241;28;20227;-58
2023/01/12 10:24:22;;;;;;;3.77;3.27;;;9.10;99.90;;;;;;4945691;29;20233;-58
2023/01/12 10:26:57;;;;;;;3.83;3.53;;;9.10;99.90;;;;;;4945411;29;20278;-58
2023/01/12 10:29:25;;;;;;;4.20;3.80;;;9.10;99.90;;;;;;4939282;29;20253;-57
2023/01/12 10:31:54;;;;;;;4.53;4.17;;;9.20;99.90;;;;;;4941595;28;20253;-55
2023/01/12 10:34:22;;;;;;;3.93;3.63;;;9.20;99.90;;;;;;4943703;28;20706;-58
2023/01/12 10:36:57;;;;;;;4.73;4.23;;;9.20;99.90;;;;;;4942419;29;20230;-58
2023/01/12 10:39:31;;;;;;;4.43;4.03;;;9.30;99.90;;;;;;4939216;28;20507;-53
2023/01/12 10:45:16;;;;;;;3.50;3.20;;;9.30;99.90;;;;;;4945035;28;20872;-58
2023/01/12 10:47:46;;;;;;;3.70;3.27;;;9.30;99.90;;;;;;4944952;29;20329;-57
2023/01/12 10:50:25;;;;;;;4.63;3.60;;;9.30;99.90;;;;;;4940235;29;20730;-57
2023/01/12 10:53:01;;;;;;;3.73;3.40;;;9.40;99.90;;;;;;4942437;29;20231;-57
2023/01/12 10:55:32;;;;;;;3.77;3.47;;;9.40;99.90;;;;;;4942167;29;20251;-55
2023/01/12 10:58:01;;;;;;;4.73;3.60;;;9.40;99.90;;;;;;4942195;29;20305;-56
2023/01/12 11:00:29;;;;;;;4.17;3.70;;;9.40;99.90;;;;;;4938036;28;20330;-52
2023/01/12 11:02:59;;;;;;;3.40;2.90;;;9.40;99.90;;;;;;4942307;28;20243;-59
2023/01/12 11:05:35;;;;;;;6.50;3.20;;;9.40;99.90;;;;;;4942308;28;20326;-58
2023/01/12 11:08:18;;;;;;;3.47;3.17;;;9.50;99.90;;;;;;4942295;29;20235;-57
2023/01/12 11:10:46;;;;;;;2.30;2.10;;;9.50;99.90;;;;;;4938426;28;20605;-57
2023/01/12 11:13:25;;;;;;;2.70;2.50;;;9.60;99.90;;;;;;4942430;29;20238;-54
2023/01/12 11:16:03;;;;;;;2.30;2.10;;;9.60;99.90;;;;;;4941857;28;21356;-57
2023/01/12 11:18:40;;;;;;;2.00;1.80;;;9.60;99.90;;;;;;4941527;28;20730;-55
2023/01/12 11:21:11;;;;;;;1.97;1.87;;;9.60;99.90;;;;;;4937932;28;20234;-56
2023/01/12 11:23:47;;;;;;;2.40;2.20;;;9.60;99.90;;;;;;4941742;28;20235;-56
2023/01/12 11:26:19;;;;;;;2.40;1.90;;;9.60;99.90;;;;;;4941219;29;20246;-56
2023/01/12 11:28:51;;;;;;;2.10;1.83;;;9.60;99.90;;;;;;4939617;28;20742;-54
2023/01/12 11:31:24;;;;;;;1.97;1.87;;;9.60;99.90;;;;;;4938345;28;20227;-57
2023/01/12 11:34:00;;;;;;;2.10;2.00;;;9.60;99.90;;;;;;4939571;28;20267;-58
2023/01/12 11:36:32;;;;;;;2.97;2.47;;;9.60;99.90;;;;;;4941203;29;20242;-53
2023/01/12 11:39:04;;;;;;;2.97;2.73;;;9.60;99.90;;;;;;4938991;29;20235;-52
2023/01/12 11:41:38;;;;;;;3.90;2.80;;;9.60;99.90;;;;;;4940900;29;20218;-56
2023/01/12 11:44:15;;;;;;;2.93;2.47;;;9.70;99.90;;;;;;4943996;29;20231;-57
2023/01/12 11:46:46;;;;;;;4.80;2.80;;;9.70;99.90;;;;;;4944423;29;20234;-56
2023/01/12 11:49:22;;;;;;;2.37;2.00;;;9.80;99.90;;;;;;4940710;29;20249;-54
2023/01/12 11:51:55;;;;;;;3.20;2.20;;;9.80;99.90;;;;;;4943002;28;20243;-57
2023/01/12 11:54:25;;;;;;;2.40;1.83;;;9.80;99.90;;;;;;4944185;29;20227;-57
2023/01/12 11:57:15;;;;;;;1.87;1.63;;;9.80;99.90;;;;;;4944115;29;20231;-58
2023/01/12 11:59:55;;;;;;;2.67;1.90;;;9.90;99.90;;;;;;4939391;28;20220;-58
2023/01/12 12:02:33;;;;;;;2.20;1.60;;;9.80;99.90;;;;;;4941820;28;20258;-57
2023/01/12 12:05:15;;;;;;;2.70;1.80;;;9.80;99.90;;;;;;4943420;29;20298;-53
2023/01/12 12:07:58;;;;;;;2.97;1.60;;;9.90;99.90;;;;;;4943853;29;20238;-54
2023/01/12 12:10:32;;;;;;;1.93;1.63;;;9.90;99.90;;;;;;4939379;29;20246;-55
2023/01/12 12:13:28;;;;;;;1.70;1.60;;;10.00;99.90;;;;;;4943958;29;20231;-58
2023/01/12 12:16:09;;;;;;;2.70;1.33;;;9.90;99.90;;;;;;4942588;29;20246;-57
2023/01/12 12:18:50;;;;;;;3.03;1.40;;;9.90;99.90;;;;;;4943537;28;20326;-57
2023/01/12 12:21:52;;;;;;;3.87;1.60;;;9.90;99.90;;;;;;4941039;29;20711;-57
2023/01/12 12:24:36;;;;;;;3.00;1.33;;;10.00;99.90;;;;;;4943579;28;20238;-56
2023/01/12 12:27:12;;;;;;;2.67;1.50;;;10.00;99.90;;;;;;4943570;29;20228;-56
2023/01/12 12:30:03;;;;;;;3.33;1.70;;;10.00;99.90;;;;;;4939703;28;20244;-58
2023/01/12 12:32:40;;;;;;;3.37;1.20;;;10.00;99.90;;;;;;4940824;28;20688;-57
2023/01/12 12:35:25;;;;;;;2.13;1.20;;;10.00;99.90;;;;;;4943609;29;20227;-58
2023/01/12 12:38:07;;;;;;;2.73;1.20;;;10.10;99.90;;;;;;4943735;28;20245;-57
2023/01/12 12:46:29;;;;;;;7.10;1.40;;;10.10;99.90;;;;;;4945887;29;20607;-57
2023/01/12 12:49:03;;;;;;;6.30;1.50;;;10.10;99.90;;;;;;4945074;29;20565;-52
2023/01/12 12:51:34;;;;;;;6.07;1.30;;;10.10;99.90;;;;;;4945295;29;20234;-57
2023/01/12 12:54:05;;;;;;;6.27;1.73;;;10.10;99.90;;;;;;4944312;28;20580;-58
2023/01/12 12:56:36;;;;;;;6.53;1.67;;;10.20;99.90;;;;;;4944539;29;20228;-58
2023/01/12 12:59:04;;;;;;;4.83;1.90;;;10.20;99.90;;;;;;4942417;28;20228;-58
2023/01/12 13:01:41;;;;;;;8.67;2.00;;;10.20;99.90;;;;;;4941598;28;20243;-58
2023/01/12 13:04:11;;;;;;;5.77;1.80;;;10.30;99.90;;;;;;4958715;28;20688;-56
2023/01/12 13:06:42;;;;;;;6.03;1.50;;;10.30;99.90;;;;;;4943865;29;21007;-56
2023/01/12 13:09:47;;;;;;;8.93;1.93;;;10.30;99.90;;;;;;4940711;29;20274;-53
2023/01/12 13:12:29;;;;;;;5.30;1.50;;;10.40;99.90;;;;;;4943157;29;20643;-54
2023/01/12 13:15:21;;;;;;;5.30;1.73;;;10.40;99.90;;;;;;4943800;28;20235;-58
2023/01/12 13:17:52;;;;;;;5.90;1.60;;;10.40;99.90;;;;;;4943749;29;20239;-57
2023/01/12 13:20:43;;;;;;;10.97;3.10;;;10.50;99.90;;;;;;4939507;29;20238;-53
2023/01/12 13:23:51;;;;;;;5.73;1.70;;;10.50;99.90;;;;;;4944699;29;20232;-58
2023/01/12 13:26:38;;;;;;;6.10;1.53;;;10.50;99.90;;;;;;4939780;29;20246;-57
2023/01/12 13:29:38;;;;;;;5.50;1.57;;;10.50;99.90;;;;;;4940812;29;20235;-57
2023/01/12 13:32:32;;;;;;;8.33;2.00;;;10.60;99.90;;;;;;4943043;28;20243;-57
2023/01/12 13:35:00;;;;;;;6.93;1.60;;;10.70;99.90;;;;;;4944487;29;20239;-58
2023/01/12 13:37:39;;;;;;;8.83;1.90;;;10.70;99.90;;;;;;4944160;28;20248;-57
2023/01/12 13:40:16;;;;;;;6.63;1.60;;;10.80;99.90;;;;;;4939272;29;20224;-57
2023/01/12 13:45:34;;;;;;;11.50;1.87;;;10.80;99.90;;;;;;4944707;28;20944;-58
2023/01/12 13:48:06;;;;;;;6.70;1.40;;;10.80;99.90;;;;;;4944325;29;20596;-58
2023/01/12 13:50:36;;;;;;;10.33;1.77;;;10.80;99.90;;;;;;4939555;28;20247;-57
2023/01/12 13:53:04;;;;;;;7.97;1.50;;;10.70;99.90;;;;;;4943963;28;20228;-57
2023/01/12 13:55:34;;;;;;;7.47;2.00;;;10.70;99.90;;;;;;4943734;28;20235;-58
2023/01/12 13:58:05;;;;;;;8.43;1.60;;;10.70;99.90;;;;;;4943738;29;20241;-58
2023/01/12 14:00:34;;;;;;;6.90;1.60;;;10.60;99.90;;;;;;4938378;28;20333;-58
2023/01/12 14:03:04;;;;;;;7.30;1.60;;;10.60;99.90;;;;;;4943504;29;20252;-58
2023/01/12 14:05:43;;;;;;;5.40;1.53;;;10.60;99.90;;;;;;4943643;29;20236;-58